Time;durP1;ratioP1;P1;durP2;ratioP2;P2;SDS_P1;SDS_P2;PMS_P1;PMS_P2;Temp;Humidity;BMP_temperature;BMP_pressure;BME280_temperature;BME280_humidity;BME280_pressure;Samples;Min_cycle;Max_cycle;Signal;HPM_P1;HPM_P2
2023/12/09 00:01:53;;;;;;;10.27;4.90;;;0.70;77.60;;;;;;5072068;28;20405;-71
2023/12/09 00:04:19;;;;;;;7.85;4.20;;;0.70;77.70;;;;;;5072413;28;20057;-75
2023/12/09 00:06:47;;;;;;;12.00;5.28;;;0.80;77.90;;;;;;5072616;28;20564;-75
2023/12/09 00:09:14;;;;;;;7.88;5.47;;;0.80;77.80;;;;;;5071394;28;20086;-75
2023/12/09 00:11:42;;;;;;;6.47;5.68;;;0.90;78.00;;;;;;5070757;28;20044;-71
2023/12/09 00:14:08;;;;;;;8.10;4.07;;;0.90;77.50;;;;;;5054416;28;20029;-71
2023/12/09 00:16:34;;;;;;;10.55;7.22;;;0.90;78.10;;;;;;5072478;28;20036;-71
2023/12/09 00:19:01;;;;;;;5.20;4.22;;;1.00;78.20;;;;;;5070927;28;20036;-71
2023/12/09 00:21:27;;;;;;;10.18;4.15;;;1.10;78.50;;;;;;5070893;28;20041;-71
2023/12/09 00:23:54;;;;;;;10.55;5.30;;;1.00;78.30;;;;;;5054362;28;20036;-72
2023/12/09 00:26:19;;;;;;;;;;;1.10;78.00;;;;;;5072705;28;20032;-71
2023/12/09 00:28:46;;;;;;;9.80;6.93;;;1.10;78.40;;;;;;5072219;28;20266;-75
2023/12/09 00:31:13;;;;;;;;;;;1.10;78.40;;;;;;5072153;28;20081;-71
2023/12/09 00:33:39;;;;;;;9.23;4.85;;;1.20;78.60;;;;;;5070485;28;20435;-71
2023/12/09 00:36:06;;;;;;;14.73;9.75;;;1.20;78.50;;;;;;5070969;28;20179;-71
2023/12/09 00:38:32;;;;;;;7.82;5.57;;;1.20;78.10;;;;;;5072506;28;20045;-75
2023/12/09 00:40:58;;;;;;;8.85;5.53;;;1.20;78.80;;;;;;5053635;28;20443;-75
2023/12/09 00:43:24;;;;;;;12.27;5.10;;;1.20;78.90;;;;;;5070792;28;20040;-75
2023/12/09 00:45:50;;;;;;;14.40;6.80;;;1.20;78.80;;;;;;5070709;28;20405;-75
2023/12/09 00:48:16;;;;;;;14.27;8.35;;;1.30;78.80;;;;;;5070910;28;20136;-75
2023/12/09 00:50:42;;;;;;;9.68;4.30;;;1.30;78.80;;;;;;5070487;28;20043;-70
2023/12/09 00:53:09;;;;;;;7.78;5.20;;;1.30;78.80;;;;;;5070633;28;20055;-76
2023/12/09 00:55:35;;;;;;;16.10;7.82;;;1.30;79.00;;;;;;5072010;28;20040;-71
2023/12/09 00:58:01;;;;;;;14.73;7.47;;;1.30;78.90;;;;;;5072111;28;20098;-71
2023/12/09 01:00:27;;;;;;;12.63;6.78;;;1.30;78.90;;;;;;5070245;28;20481;-75
2023/12/09 01:02:53;;;;;;;9.55;4.43;;;1.40;78.90;;;;;;5070421;28;20070;-71
2023/12/09 01:05:19;;;;;;;11.77;6.43;;;1.40;78.80;;;;;;5053988;28;20049;-71
2023/12/09 01:07:45;;;;;;;11.15;5.57;;;1.40;78.80;;;;;;5072006;28;20036;-75
2023/12/09 01:10:11;;;;;;;10.52;5.43;;;1.40;78.80;;;;;;5071125;28;20033;-75
2023/12/09 01:12:37;;;;;;;5.63;3.58;;;1.40;78.80;;;;;;5070604;28;20017;-76
2023/12/09 01:15:04;;;;;;;14.75;6.95;;;1.40;78.70;;;;;;5070653;28;20091;-75
2023/12/09 01:17:30;;;;;;;14.52;7.00;;;1.40;78.50;;;;;;5053970;28;20436;-71
2023/12/09 01:19:56;;;;;;;8.70;4.20;;;1.40;78.50;;;;;;5053790;28;20048;-70
2023/12/09 01:22:22;;;;;;;8.52;5.60;;;1.50;78.60;;;;;;5071537;28;20036;-75
2023/12/09 01:24:48;;;;;;;;;;;1.50;78.70;;;;;;5072601;28;20452;-75
2023/12/09 01:27:14;;;;;;;12.48;7.55;;;1.50;78.80;;;;;;5070437;28;19917;-71
2023/12/09 01:29:40;;;;;;;12.85;7.90;;;1.40;78.50;;;;;;5070432;28;20032;-71
2023/12/09 01:32:06;;;;;;;;;;;1.40;78.90;;;;;;5070511;28;20048;-75
2023/12/09 01:34:34;;;;;;;14.75;5.65;;;1.50;78.80;;;;;;5070557;28;19962;-76
2023/12/09 01:37:00;;;;;;;11.52;7.10;;;1.50;78.70;;;;;;5070808;28;20051;-71
2023/12/09 01:39:27;;;;;;;14.55;9.15;;;1.50;78.70;;;;;;5070388;28;20090;-75
2023/12/09 01:41:53;;;;;;;7.47;4.30;;;1.50;78.80;;;;;;5071098;28;20041;-76
2023/12/09 01:44:19;;;;;;;13.35;6.10;;;1.50;78.90;;;;;;5072587;28;20390;-76
2023/12/09 01:46:46;;;;;;;10.55;8.00;;;1.50;78.90;;;;;;5073834;28;20060;-71
2023/12/09 01:49:13;;;;;;;10.60;7.32;;;1.50;78.90;;;;;;5074012;28;20040;-70
2023/12/09 01:51:42;;;;;;;11.52;5.28;;;1.50;79.00;;;;;;5074825;28;20041;-71
2023/12/09 01:54:09;;;;;;;13.05;5.72;;;1.50;78.90;;;;;;5074612;28;20062;-72
2023/12/09 01:56:35;;;;;;;13.43;5.90;;;1.50;78.80;;;;;;5056871;28;20046;-71
2023/12/09 01:59:02;;;;;;;7.78;4.32;;;1.50;79.00;;;;;;5073706;28;20075;-71
2023/12/09 02:01:30;;;;;;;10.57;4.90;;;1.50;78.80;;;;;;5073025;28;20033;-72
2023/12/09 02:03:57;;;;;;;18.20;7.43;;;1.50;78.80;;;;;;5073199;28;20098;-75
2023/12/09 02:06:23;;;;;;;10.18;5.72;;;1.50;78.80;;;;;;5074727;28;20037;-70
2023/12/09 02:08:49;;;;;;;7.38;6.43;;;1.60;78.90;;;;;;5056820;28;20033;-75
2023/12/09 02:11:52;;;;;;;9.43;4.38;;;1.60;78.90;;;;;;5046512;28;20037;-71
2023/12/09 02:15:17;;;;;;;9.55;6.03;;;1.60;78.70;;;;;;5053975;28;20441;-76
2023/12/09 02:17:56;;;;;;;9.15;5.72;;;1.60;78.50;;;;;;5054699;28;20052;-75
2023/12/09 02:20:22;;;;;;;11.82;4.20;;;1.60;78.40;;;;;;5052653;28;20441;-76
2023/12/09 02:22:48;;;;;;;14.75;8.35;;;1.60;78.00;;;;;;5053057;28;20025;-71
2023/12/09 02:25:14;;;;;;;12.10;6.43;;;1.60;78.50;;;;;;5054284;28;20505;-70
2023/12/09 02:28:07;;;;;;;15.52;8.82;;;1.60;78.50;;;;;;5036700;28;20044;-71
2023/12/09 02:31:29;;;;;;;16.35;9.13;;;1.70;78.40;;;;;;5048412;28;20037;-76
2023/12/09 02:33:56;;;;;;;13.65;6.55;;;1.60;78.30;;;;;;5034404;28;20025;-71
2023/12/09 02:36:24;;;;;;;7.78;6.30;;;1.60;78.20;;;;;;5033151;28;20037;-75
2023/12/09 02:38:52;;;;;;;7.88;5.35;;;1.60;78.10;;;;;;5016577;28;20040;-76
2023/12/09 02:41:19;;;;;;;12.43;7.07;;;1.70;78.40;;;;;;5032482;28;20044;-70
2023/12/09 02:43:46;;;;;;;17.60;8.90;;;1.70;78.50;;;;;;5032523;28;20040;-76
2023/12/09 02:46:16;;;;;;;11.27;6.10;;;1.70;78.10;;;;;;5034226;28;20029;-70
2023/12/09 02:48:42;;;;;;;10.85;7.90;;;1.70;78.20;;;;;;5032779;28;20037;-75
2023/12/09 02:51:08;;;;;;;10.65;5.70;;;1.70;78.10;;;;;;5033587;28;20037;-74
2023/12/09 02:53:35;;;;;;;11.20;6.32;;;1.70;78.20;;;;;;5032529;28;20034;-75
2023/12/09 02:56:00;;;;;;;;;;;1.70;78.20;;;;;;5032522;28;20079;-71
2023/12/09 02:58:26;;;;;;;13.45;7.50;;;1.70;78.20;;;;;;5033927;28;19921;-75
2023/12/09 03:00:52;;;;;;;16.67;6.50;;;1.70;78.00;;;;;;5032189;28;20056;-70
2023/12/09 03:03:18;;;;;;;14.43;4.63;;;1.70;78.20;;;;;;5032479;28;20038;-71
2023/12/09 03:05:45;;;;;;;9.68;5.28;;;1.70;78.20;;;;;;5033725;28;20391;-70
2023/12/09 03:08:11;;;;;;;13.68;6.88;;;1.70;78.20;;;;;;5033883;28;20049;-71
2023/12/09 03:10:37;;;;;;;6.38;4.20;;;1.70;78.20;;;;;;5031895;28;20029;-70
2023/12/09 03:13:03;;;;;;;7.20;5.53;;;1.70;78.20;;;;;;5032517;28;20041;-71
2023/12/09 03:15:29;;;;;;;11.85;7.00;;;1.70;78.20;;;;;;5031968;28;20038;-75
2023/12/09 03:17:55;;;;;;;8.55;4.90;;;1.70;78.10;;;;;;5034077;28;20498;-75
2023/12/09 03:20:21;;;;;;;11.25;7.18;;;1.70;78.00;;;;;;5031710;28;20033;-75
2023/12/09 03:22:47;;;;;;;9.82;6.65;;;1.80;77.90;;;;;;5033298;28;20036;-70
2023/12/09 03:25:13;;;;;;;18.35;8.82;;;1.80;77.90;;;;;;5033539;28;20034;-70
2023/12/09 03:27:39;;;;;;;9.10;7.05;;;1.80;77.90;;;;;;5033474;28;20052;-71
2023/12/09 03:30:06;;;;;;;12.57;6.30;;;1.80;77.90;;;;;;5032652;28;20076;-71
2023/12/09 03:32:32;;;;;;;14.18;8.73;;;1.80;77.70;;;;;;5031914;28;20063;-71
2023/12/09 03:34:58;;;;;;;13.82;8.40;;;1.80;77.70;;;;;;5032044;28;20087;-75
2023/12/09 03:37:26;;;;;;;9.07;6.57;;;1.80;77.70;;;;;;5032021;28;20495;-76
2023/12/09 03:39:52;;;;;;;7.03;4.35;;;1.80;77.70;;;;;;5031649;28;20478;-75
2023/12/09 03:42:18;;;;;;;14.55;6.57;;;1.80;77.60;;;;;;5032650;28;20083;-75
2023/12/09 03:44:44;;;;;;;9.68;6.18;;;1.80;77.50;;;;;;5031606;28;20430;-75
2023/12/09 03:47:10;;;;;;;12.02;6.70;;;1.90;77.50;;;;;;5031926;28;20034;-71
2023/12/09 03:49:36;;;;;;;9.85;6.38;;;1.90;77.40;;;;;;5032840;28;20095;-71
2023/12/09 03:52:02;;;;;;;19.60;6.68;;;1.90;77.40;;;;;;5014782;28;20049;-70
2023/12/09 03:54:28;;;;;;;;;;;1.90;77.30;;;;;;5031824;28;20399;-75
2023/12/09 03:56:54;;;;;;;7.88;5.15;;;1.90;77.30;;;;;;5032898;28;19917;-75
2023/12/09 03:59:20;;;;;;;11.55;6.60;;;1.90;77.10;;;;;;5033036;28;20038;-75
2023/12/09 04:01:51;;;;;;;9.43;6.18;;;1.90;77.10;;;;;;5032168;28;20438;-75
2023/12/09 04:04:17;;;;;;;22.75;7.10;;;1.90;76.60;;;;;;5032602;28;20061;-70
2023/12/09 04:06:44;;;;;;;10.23;4.97;;;1.90;77.10;;;;;;5031442;28;20029;-71
2023/12/09 04:09:10;;;;;;;15.40;8.38;;;1.90;76.60;;;;;;5031481;28;20457;-70
2023/12/09 04:11:36;;;;;;;;;;;2.00;77.10;;;;;;5031274;28;20120;-70
2023/12/09 04:14:03;;;;;;;8.88;6.20;;;1.90;77.00;;;;;;5031099;28;19925;-70
2023/12/09 04:16:30;;;;;;;12.32;5.47;;;2.00;76.90;;;;;;5031404;28;20029;-75
2023/12/09 04:18:56;;;;;;;9.63;6.88;;;2.00;76.80;;;;;;5031348;28;20060;-70
2023/12/09 04:21:22;;;;;;;14.23;6.57;;;2.00;76.80;;;;;;5030640;28;20037;-70
2023/12/09 04:23:48;;;;;;;7.90;4.82;;;2.00;76.70;;;;;;5030893;28;20033;-70
2023/12/09 04:26:14;;;;;;;8.77;3.72;;;2.10;76.90;;;;;;5031198;28;20038;-75
2023/12/09 04:28:40;;;;;;;8.48;5.45;;;2.00;76.70;;;;;;5031209;28;20045;-70
2023/12/09 04:31:06;;;;;;;10.07;5.93;;;2.10;76.70;;;;;;5030756;28;20099;-75
2023/12/09 04:33:32;;;;;;;13.90;6.13;;;2.10;76.70;;;;;;5030869;28;20038;-75
2023/12/09 04:35:59;;;;;;;12.73;7.72;;;2.10;76.50;;;;;;5030995;28;20030;-70
2023/12/09 04:38:25;;;;;;;12.18;6.55;;;2.10;76.50;;;;;;5031117;28;20037;-70
2023/12/09 04:40:51;;;;;;;10.48;6.68;;;2.10;76.50;;;;;;5030454;28;20037;-71
2023/12/09 04:43:17;;;;;;;8.07;3.10;;;2.10;76.70;;;;;;5031983;28;20034;-75
2023/12/09 04:45:43;;;;;;;9.05;4.63;;;2.10;76.70;;;;;;5030925;28;20133;-70
2023/12/09 04:48:09;;;;;;;13.93;7.00;;;2.00;76.70;;;;;;5030936;28;20394;-75
2023/12/09 04:50:35;;;;;;;9.93;4.57;;;2.00;76.90;;;;;;5030444;28;20034;-70
2023/12/09 04:53:01;;;;;;;6.82;3.88;;;1.90;77.10;;;;;;5032168;28;20030;-75
2023/12/09 04:55:28;;;;;;;10.80;4.78;;;1.90;77.40;;;;;;5031838;28;20087;-74
2023/12/09 04:57:54;;;;;;;7.25;5.05;;;1.80;77.40;;;;;;5014439;28;20079;-74
2023/12/09 05:00:20;;;;;;;12.32;6.70;;;1.80;77.60;;;;;;5031338;28;20029;-75
2023/12/09 05:02:46;;;;;;;13.45;6.35;;;1.80;77.70;;;;;;5032129;28;20037;-70
2023/12/09 05:05:13;;;;;;;8.77;5.47;;;1.70;77.90;;;;;;5030571;28;20057;-71
2023/12/09 05:07:40;;;;;;;7.05;4.22;;;1.80;77.70;;;;;;5032129;28;20025;-75
2023/12/09 05:10:06;;;;;;;11.15;5.07;;;1.80;77.50;;;;;;5030390;28;20261;-75
2023/12/09 05:12:33;;;;;;;8.10;4.97;;;1.90;76.80;;;;;;5032101;28;20490;-70
2023/12/09 05:14:59;;;;;;;7.30;5.43;;;1.90;77.40;;;;;;5030459;28;20487;-73
2023/12/09 05:17:25;;;;;;;9.50;5.00;;;1.90;77.20;;;;;;5030828;28;20061;-70
2023/12/09 05:19:51;;;;;;;12.73;5.90;;;1.90;77.20;;;;;;5035865;28;20406;-75
2023/12/09 05:22:17;;;;;;;7.10;5.13;;;1.80;77.30;;;;;;5035102;28;20053;-70
2023/12/09 05:24:43;;;;;;;8.07;4.88;;;1.80;77.40;;;;;;5017815;28;20041;-70
2023/12/09 05:27:10;;;;;;;8.07;4.43;;;1.80;77.50;;;;;;5034279;28;20022;-75
2023/12/09 05:29:36;;;;;;;7.15;4.28;;;1.80;77.60;;;;;;5034603;28;20053;-75
2023/12/09 05:32:02;;;;;;;7.40;4.03;;;1.80;77.50;;;;;;5033826;28;20034;-75
2023/12/09 05:34:29;;;;;;;12.25;5.60;;;1.80;77.60;;;;;;5034145;28;20025;-70
2023/12/09 05:36:55;;;;;;;14.20;7.13;;;1.80;77.70;;;;;;5034289;28;20514;-74
2023/12/09 05:39:21;;;;;;;7.55;4.63;;;1.80;77.60;;;;;;5034222;28;20482;-70
2023/12/09 05:41:47;;;;;;;5.68;4.10;;;1.80;78.40;;;;;;5033457;28;20044;-70
2023/12/09 05:44:13;;;;;;;9.55;6.40;;;1.80;77.60;;;;;;5033838;28;20495;-70
2023/12/09 05:46:40;;;;;;;7.07;4.50;;;1.80;77.50;;;;;;5035374;28;20052;-74
2023/12/09 05:49:06;;;;;;;15.88;5.07;;;1.80;77.40;;;;;;5034297;28;20115;-75
2023/12/09 05:51:32;;;;;;;17.40;5.78;;;1.80;77.60;;;;;;5034543;28;20034;-74
2023/12/09 05:53:58;;;;;;;12.45;5.35;;;1.80;77.50;;;;;;5035142;28;20040;-75
2023/12/09 05:56:24;;;;;;;10.10;5.35;;;1.80;77.50;;;;;;5017285;28;20479;-74
2023/12/09 05:58:50;;;;;;;8.63;5.28;;;1.80;77.40;;;;;;5017306;28;20437;-71
2023/12/09 06:01:16;;;;;;;11.02;5.43;;;1.80;77.40;;;;;;5016434;28;20037;-75
2023/12/09 06:03:42;;;;;;;12.32;6.80;;;1.80;77.30;;;;;;5033374;28;20120;-75
2023/12/09 06:06:09;;;;;;;10.02;4.85;;;1.80;77.40;;;;;;5033744;28;20033;-70
2023/12/09 06:08:36;;;;;;;12.30;6.30;;;1.70;77.60;;;;;;5034945;28;20068;-75
2023/12/09 06:11:02;;;;;;;7.20;5.20;;;1.70;77.70;;;;;;5034413;28;20040;-75
2023/12/09 06:13:28;;;;;;;12.20;4.47;;;1.70;77.50;;;;;;5034836;28;20033;-70
2023/12/09 06:15:54;;;;;;;;;;;1.80;77.70;;;;;;5034090;28;20434;-75
2023/12/09 06:18:20;;;;;;;11.05;6.25;;;1.80;77.60;;;;;;5033148;28;20013;-71
2023/12/09 06:20:46;;;;;;;11.95;6.30;;;1.70;78.50;;;;;;5032872;28;20048;-75
2023/12/09 06:23:12;;;;;;;6.72;4.65;;;1.80;77.60;;;;;;5043687;28;20033;-75
2023/12/09 06:25:38;;;;;;;10.15;8.02;;;1.80;77.60;;;;;;5053157;28;20087;-74
2023/12/09 06:28:04;;;;;;;7.55;4.60;;;1.70;77.60;;;;;;5053214;28;20090;-71
2023/12/09 06:30:32;;;;;;;8.70;4.90;;;1.70;77.60;;;;;;5038432;28;20032;-75
2023/12/09 06:32:58;;;;;;;10.52;7.00;;;1.70;77.60;;;;;;5074197;28;20025;-70
2023/12/09 06:35:24;;;;;;;11.90;6.50;;;1.80;77.60;;;;;;5072966;28;20082;-71
2023/12/09 06:37:50;;;;;;;6.90;4.38;;;1.80;77.40;;;;;;5073101;28;20033;-75
2023/12/09 06:40:16;;;;;;;9.82;6.47;;;1.80;77.40;;;;;;5072331;28;20031;-75
2023/12/09 06:42:42;;;;;;;10.40;4.95;;;1.80;77.40;;;;;;5072918;28;20029;-70
2023/12/09 06:45:08;;;;;;;9.80;6.03;;;1.80;77.30;;;;;;5055767;28;20140;-69
2023/12/09 06:47:34;;;;;;;13.73;7.53;;;1.80;76.70;;;;;;5073090;28;20035;-74
2023/12/09 06:50:00;;;;;;;7.07;4.68;;;1.80;77.30;;;;;;5074547;28;20434;-70
2023/12/09 06:52:27;;;;;;;10.15;5.72;;;1.90;77.20;;;;;;5072989;28;20044;-70
2023/12/09 06:54:53;;;;;;;12.15;4.35;;;1.90;77.10;;;;;;5074312;28;20041;-75
2023/12/09 06:57:19;;;;;;;21.88;8.48;;;1.90;77.00;;;;;;5055873;28;20040;-70
2023/12/09 06:59:45;;;;;;;;;;;1.90;77.00;;;;;;5074325;28;20040;-71
2023/12/09 07:02:11;;;;;;;14.30;7.28;;;2.00;77.00;;;;;;5073037;28;20300;-70
2023/12/09 07:04:37;;;;;;;8.48;6.30;;;2.00;76.80;;;;;;5073787;28;20057;-70
2023/12/09 07:07:03;;;;;;;16.17;7.57;;;1.90;76.80;;;;;;5072457;28;20086;-74
2023/12/09 07:09:29;;;;;;;;;;;2.00;76.30;;;;;;5056373;28;20094;-73
2023/12/09 07:11:55;;;;;;;9.32;7.40;;;1.90;76.90;;;;;;5071584;28;20297;-70
2023/12/09 07:14:21;;;;;;;15.30;9.07;;;1.90;76.80;;;;;;5055392;28;20482;-71
2023/12/09 07:16:47;;;;;;;14.93;8.57;;;2.00;76.80;;;;;;5073760;28;20078;-74
2023/12/09 07:19:13;;;;;;;16.73;10.55;;;2.00;76.80;;;;;;5072100;28;20082;-70
2023/12/09 07:21:39;;;;;;;;;;;2.00;76.70;;;;;;5072329;28;20456;-70
2023/12/09 07:24:06;;;;;;;11.90;5.28;;;2.00;76.70;;;;;;5071902;28;19917;-74
2023/12/09 07:26:32;;;;;;;;;;;2.00;76.50;;;;;;5073755;28;20408;-71
2023/12/09 07:28:58;;;;;;;9.07;7.03;;;2.00;76.50;;;;;;5073185;28;19925;-74
2023/12/09 07:31:24;;;;;;;14.13;6.75;;;2.00;76.50;;;;;;5072789;28;20037;-74
2023/12/09 07:33:50;;;;;;;8.85;5.55;;;2.00;76.30;;;;;;5071759;28;20044;-70
2023/12/09 07:36:17;;;;;;;14.40;7.93;;;2.00;76.50;;;;;;5072910;28;20069;-74
2023/12/09 07:38:43;;;;;;;10.02;6.30;;;2.00;76.50;;;;;;5073263;28;20063;-70
2023/12/09 07:41:09;;;;;;;8.40;5.57;;;2.10;76.50;;;;;;5050927;28;20077;-74
2023/12/09 07:43:35;;;;;;;20.88;10.32;;;2.10;76.40;;;;;;5051673;28;20033;-74
2023/12/09 07:46:01;;;;;;;14.27;8.43;;;2.10;76.30;;;;;;5052907;28;20037;-74
2023/12/09 07:48:27;;;;;;;;;;;2.20;76.10;;;;;;5068937;28;20095;-71
2023/12/09 07:50:53;;;;;;;10.65;7.40;;;2.20;76.00;;;;;;5058193;28;20003;-73
2023/12/09 07:53:19;;;;;;;18.70;7.40;;;2.20;75.40;;;;;;5054744;28;20036;-74
2023/12/09 07:55:45;;;;;;;15.20;7.97;;;2.20;75.90;;;;;;5072639;28;20032;-74
2023/12/09 07:58:11;;;;;;;11.93;7.93;;;2.30;75.90;;;;;;5072810;28;20101;-70
2023/12/09 08:00:37;;;;;;;10.52;6.75;;;2.30;75.70;;;;;;5070796;28;20028;-70
2023/12/09 08:03:04;;;;;;;19.15;6.10;;;2.30;75.60;;;;;;5072491;28;20029;-74
2023/12/09 08:05:34;;;;;;;13.52;5.95;;;2.30;75.40;;;;;;5071334;28;20044;-74
2023/12/09 08:08:01;;;;;;;13.77;10.07;;;2.30;75.40;;;;;;5071772;28;20028;-74
2023/12/09 08:10:28;;;;;;;12.80;7.43;;;2.40;75.30;;;;;;5070783;28;20052;-74
2023/12/09 08:12:54;;;;;;;21.30;13.38;;;2.40;75.20;;;;;;5054332;28;20051;-72
2023/12/09 08:15:20;;;;;;;16.83;11.13;;;2.40;75.20;;;;;;5071105;28;20032;-71
2023/12/09 08:17:46;;;;;;;6.78;5.57;;;2.40;75.30;;;;;;5054710;28;20033;-74
2023/12/09 08:20:12;;;;;;;15.15;9.88;;;2.40;75.30;;;;;;5071711;28;20397;-70
2023/12/09 08:25:23;;;;;;;9.13;5.30;;;2.40;75.30;;;;;;5072315;28;20060;-74
2023/12/09 08:27:49;;;;;;;12.25;5.57;;;2.40;75.10;;;;;;5072409;28;20063;-74
2023/12/09 08:30:15;;;;;;;9.48;6.35;;;2.50;75.10;;;;;;5071759;28;20037;-74
2023/12/09 08:32:41;;;;;;;21.10;6.95;;;2.50;75.20;;;;;;5054487;28;20481;-70
2023/12/09 08:35:09;;;;;;;11.18;7.35;;;2.40;74.40;;;;;;5072011;28;20043;-70
2023/12/09 08:37:37;;;;;;;16.13;8.43;;;2.50;75.10;;;;;;5072385;28;20036;-74
2023/12/09 08:40:22;;;;;;;16.50;7.22;;;2.40;75.00;;;;;;5071145;28;20036;-74
2023/12/09 08:42:48;;;;;;;9.77;6.15;;;2.50;75.30;;;;;;5070745;28;20052;-74
2023/12/09 08:45:16;;;;;;;12.55;9.07;;;2.50;75.10;;;;;;5072046;28;20493;-74
2023/12/09 08:47:43;;;;;;;8.00;5.45;;;2.50;74.80;;;;;;5072170;28;20090;-70
2023/12/09 08:50:09;;;;;;;9.48;5.60;;;2.60;74.20;;;;;;5070235;28;20044;-74
2023/12/09 08:52:35;;;;;;;9.90;6.40;;;2.60;74.70;;;;;;5071959;28;20033;-74
2023/12/09 08:55:02;;;;;;;;;;;2.60;74.80;;;;;;5075111;28;20041;-70
2023/12/09 08:57:28;;;;;;;11.30;5.72;;;2.60;74.20;;;;;;5074937;28;19921;-71
2023/12/09 08:59:54;;;;;;;11.50;6.50;;;2.60;74.70;;;;;;5076593;28;20087;-74
2023/12/09 09:02:21;;;;;;;24.95;8.50;;;2.60;74.70;;;;;;5074263;28;20048;-70
2023/12/09 09:04:47;;;;;;;10.25;8.48;;;2.70;74.40;;;;;;5074573;28;20433;-74
2023/12/09 09:07:14;;;;;;;23.27;8.02;;;2.70;74.60;;;;;;5074779;28;20062;-70
2023/12/09 09:09:40;;;;;;;12.50;4.45;;;2.70;74.50;;;;;;5076098;28;20055;-74
2023/12/09 09:12:07;;;;;;;12.70;6.63;;;2.80;74.40;;;;;;5074284;28;20256;-71
2023/12/09 09:14:37;;;;;;;11.05;6.88;;;2.80;74.00;;;;;;5057694;28;20032;-74
2023/12/09 09:17:23;;;;;;;9.80;6.55;;;2.80;74.10;;;;;;5074748;28;20076;-70
2023/12/09 09:19:49;;;;;;;10.93;6.65;;;2.80;74.20;;;;;;5074636;28;20043;-71
2023/12/09 09:22:15;;;;;;;7.28;4.53;;;2.90;74.20;;;;;;5073847;28;20044;-74
2023/12/09 09:24:41;;;;;;;13.60;8.43;;;2.90;74.10;;;;;;5075870;28;20090;-70
2023/12/09 09:27:07;;;;;;;16.35;7.18;;;3.00;73.90;;;;;;5075758;28;20527;-71
2023/12/09 09:29:33;;;;;;;9.98;5.82;;;3.00;73.70;;;;;;5075793;28;20062;-74
2023/12/09 09:31:59;;;;;;;12.73;6.25;;;3.00;73.60;;;;;;5075056;28;20036;-71
2023/12/09 09:34:25;;;;;;;13.38;7.43;;;3.10;73.60;;;;;;5075538;28;20506;-74
2023/12/09 09:36:51;;;;;;;;;;;3.20;73.40;;;;;;5076067;28;20024;-74
2023/12/09 09:39:18;;;;;;;11.93;7.03;;;3.20;73.30;;;;;;5074257;28;20421;-74
2023/12/09 09:42:13;;;;;;;10.13;5.68;;;3.10;73.20;;;;;;5073328;28;20452;-70
2023/12/09 09:44:50;;;;;;;16.88;8.38;;;3.10;73.20;;;;;;5073962;28;20075;-71
2023/12/09 09:47:18;;;;;;;19.73;10.68;;;3.20;72.90;;;;;;5057444;28;20029;-70
2023/12/09 09:49:46;;;;;;;10.88;7.63;;;3.20;72.70;;;;;;5075517;28;20098;-74
2023/12/09 09:52:16;;;;;;;11.80;7.30;;;3.20;72.70;;;;;;5073157;28;20440;-74
2023/12/09 09:54:44;;;;;;;10.68;7.07;;;3.30;72.70;;;;;;5073811;28;20037;-74
2023/12/09 09:57:12;;;;;;;14.38;8.60;;;3.30;72.50;;;;;;5057163;28;20115;-74
2023/12/09 09:59:39;;;;;;;18.48;8.60;;;3.40;72.20;;;;;;5073902;28;20036;-74
2023/12/09 10:02:07;;;;;;;16.02;8.63;;;3.30;72.10;;;;;;5056290;28;20048;-74
2023/12/09 10:04:33;;;;;;;9.43;7.50;;;3.30;72.40;;;;;;5073210;28;20048;-74
2023/12/09 10:07:01;;;;;;;11.65;5.47;;;3.30;72.60;;;;;;5073704;28;20037;-70
2023/12/09 10:09:27;;;;;;;8.32;6.88;;;3.20;72.50;;;;;;5074723;28;20558;-71
2023/12/09 10:11:53;;;;;;;14.48;6.85;;;3.20;72.80;;;;;;5073090;28;20036;-74
2023/12/09 10:14:20;;;;;;;7.50;4.80;;;3.30;72.90;;;;;;5074615;28;20036;-74
2023/12/09 10:16:46;;;;;;;12.05;7.40;;;3.30;72.50;;;;;;5073724;28;20061;-74
2023/12/09 10:19:14;;;;;;;8.57;6.80;;;3.40;71.70;;;;;;5073296;28;20037;-74
2023/12/09 10:21:40;;;;;;;10.50;6.72;;;3.50;71.40;;;;;;5073927;28;20048;-71
2023/12/09 10:24:07;;;;;;;18.27;8.57;;;3.60;71.80;;;;;;5073265;28;20328;-74
2023/12/09 10:26:33;;;;;;;9.88;6.53;;;3.60;71.50;;;;;;5074521;28;20033;-71
2023/12/09 10:29:00;;;;;;;14.27;8.10;;;3.60;71.40;;;;;;5073388;28;20040;-72
2023/12/09 10:31:29;;;;;;;15.18;7.00;;;3.70;71.60;;;;;;5072659;28;20033;-71
2023/12/09 10:33:56;;;;;;;8.27;4.72;;;3.70;70.70;;;;;;5056716;28;20055;-74
2023/12/09 10:36:23;;;;;;;11.70;7.47;;;3.70;70.80;;;;;;5073015;28;20028;-74
2023/12/09 10:38:52;;;;;;;13.73;7.78;;;3.80;71.00;;;;;;5074566;28;20096;-74
2023/12/09 10:41:18;;;;;;;18.90;6.03;;;3.70;70.90;;;;;;5073552;28;20070;-71
2023/12/09 10:43:46;;;;;;;17.73;7.38;;;3.70;70.90;;;;;;5072783;28;20094;-71
2023/12/09 10:46:13;;;;;;;13.75;8.10;;;3.70;71.10;;;;;;5074273;28;20032;-74
2023/12/09 10:48:41;;;;;;;14.55;10.60;;;3.70;71.20;;;;;;5072478;28;20505;-74
2023/12/09 10:51:07;;;;;;;8.32;5.32;;;3.70;71.20;;;;;;5072308;28;20496;-74
2023/12/09 10:53:33;;;;;;;;;;;3.60;71.30;;;;;;5073129;28;20503;-71
2023/12/09 10:55:59;;;;;;;13.38;8.25;;;3.60;71.70;;;;;;5055856;28;19916;-74
2023/12/09 10:58:27;;;;;;;22.00;9.15;;;3.70;71.40;;;;;;5074082;28;20367;-74
2023/12/09 11:00:56;;;;;;;17.52;10.93;;;3.60;71.40;;;;;;5071854;28;20037;-74
2023/12/09 11:03:25;;;;;;;26.55;10.48;;;3.60;71.30;;;;;;5072501;28;20541;-71
2023/12/09 11:05:52;;;;;;;12.75;8.30;;;3.60;71.30;;;;;;5072327;28;20037;-74
2023/12/09 11:08:19;;;;;;;23.58;10.05;;;3.60;71.30;;;;;;5072523;28;20060;-74
2023/12/09 11:10:47;;;;;;;15.88;10.68;;;3.60;70.70;;;;;;5055299;28;20579;-74
2023/12/09 11:13:14;;;;;;;20.88;9.02;;;3.60;70.70;;;;;;5072189;28;20044;-74
2023/12/09 11:15:40;;;;;;;12.88;6.90;;;3.60;71.00;;;;;;5071397;28;20029;-74
2023/12/09 11:18:08;;;;;;;;;;;3.60;70.20;;;;;;5074265;28;20044;-71
2023/12/09 11:20:39;;;;;;;11.32;6.20;;;3.60;71.00;;;;;;5054826;28;19983;-74
2023/12/09 11:23:10;;;;;;;21.95;9.68;;;3.60;70.90;;;;;;5073661;28;19920;-70
2023/12/09 11:25:40;;;;;;;8.95;6.35;;;3.60;71.00;;;;;;5071968;28;20024;-71
2023/12/09 11:28:06;;;;;;;11.68;6.10;;;3.70;70.90;;;;;;5072170;28;20040;-71
2023/12/09 11:30:36;;;;;;;22.92;9.65;;;3.80;70.90;;;;;;5051549;28;20476;-71
2023/12/09 11:33:03;;;;;;;10.82;8.48;;;3.80;70.60;;;;;;5052186;28;20104;-74
2023/12/09 11:35:32;;;;;;;17.92;9.93;;;3.90;70.50;;;;;;5053157;28;20029;-74
2023/12/09 11:37:59;;;;;;;24.00;15.10;;;3.90;70.30;;;;;;5051991;28;20489;-71
2023/12/09 11:40:29;;;;;;;25.35;11.20;;;3.90;70.60;;;;;;5055616;28;20051;-74
2023/12/09 11:43:15;;;;;;;18.58;10.13;;;3.90;70.70;;;;;;5072814;28;20103;-71
2023/12/09 11:45:41;;;;;;;25.92;10.02;;;3.90;70.60;;;;;;5071673;28;20051;-74
2023/12/09 11:48:09;;;;;;;11.70;6.95;;;3.90;70.40;;;;;;5073125;28;20056;-70
2023/12/09 11:50:35;;;;;;;11.93;8.80;;;4.00;70.40;;;;;;5071008;28;20063;-74
2023/12/09 11:53:01;;;;;;;11.32;9.23;;;3.90;70.20;;;;;;5054692;28;20028;-74
2023/12/09 11:55:27;;;;;;;37.95;17.25;;;3.80;70.40;;;;;;5072717;28;20087;-74
2023/12/09 11:57:53;;;;;;;19.20;13.70;;;3.80;70.50;;;;;;5071655;28;20028;-70
2023/12/09 12:00:19;;;;;;;14.02;7.72;;;3.80;70.60;;;;;;5072074;28;20051;-70
2023/12/09 12:02:47;;;;;;;13.60;8.93;;;3.80;70.40;;;;;;5072560;28;20393;-71
2023/12/09 12:05:13;;;;;;;15.63;7.70;;;3.80;70.70;;;;;;5071291;28;20040;-74
2023/12/09 12:07:40;;;;;;;14.50;7.22;;;3.80;70.90;;;;;;5054845;28;20481;-74
2023/12/09 12:10:07;;;;;;;10.32;6.57;;;3.60;70.70;;;;;;5071099;28;20463;-74
2023/12/09 12:12:35;;;;;;;13.00;6.97;;;3.60;71.10;;;;;;5054544;28;20477;-74
2023/12/09 12:15:02;;;;;;;9.88;8.02;;;3.60;71.20;;;;;;5071265;28;20040;-71
2023/12/09 12:17:36;;;;;;;8.73;5.80;;;3.50;71.40;;;;;;5071195;28;20496;-74
2023/12/09 12:20:05;;;;;;;14.40;7.78;;;3.60;71.40;;;;;;5054407;28;20071;-70
2023/12/09 12:22:31;;;;;;;11.63;7.07;;;3.40;71.30;;;;;;5070937;28;20131;-71
2023/12/09 12:24:57;;;;;;;15.13;7.22;;;3.50;72.10;;;;;;5072800;28;20059;-70
2023/12/09 12:27:24;;;;;;;13.45;8.50;;;3.50;72.20;;;;;;5071749;28;20032;-71
2023/12/09 12:29:50;;;;;;;14.57;8.73;;;3.60;72.00;;;;;;5070783;28;20043;-74
2023/12/09 12:32:16;;;;;;;13.90;6.95;;;3.60;72.20;;;;;;5072072;28;20028;-71
2023/12/09 12:35:03;;;;;;;16.48;6.35;;;3.60;72.20;;;;;;5070945;28;20037;-74
2023/12/09 12:37:29;;;;;;;8.63;5.72;;;3.70;71.90;;;;;;5072363;28;20036;-71
2023/12/09 12:39:55;;;;;;;22.60;11.43;;;3.60;71.00;;;;;;5072749;28;20036;-70
2023/12/09 12:42:22;;;;;;;9.52;6.47;;;3.60;72.00;;;;;;5070529;28;20079;-71
2023/12/09 12:44:48;;;;;;;14.30;9.23;;;3.60;71.80;;;;;;5054127;28;20498;-70
2023/12/09 12:47:14;;;;;;;11.98;7.35;;;3.70;71.70;;;;;;5072316;28;20036;-74
2023/12/09 12:49:40;;;;;;;9.18;5.13;;;3.60;71.80;;;;;;5072340;28;20045;-74
2023/12/09 12:52:06;;;;;;;9.43;5.88;;;3.70;71.50;;;;;;5070426;28;20036;-74
2023/12/09 12:54:32;;;;;;;;;;;3.80;70.60;;;;;;5072843;28;20040;-74
2023/12/09 12:56:58;;;;;;;13.23;6.93;;;3.70;71.40;;;;;;5072106;28;19912;-73
2023/12/09 12:59:24;;;;;;;13.07;6.15;;;3.70;70.90;;;;;;5072333;28;20048;-74